Pagrindinis puslapis
METAR-TAF:

METAR-TAF

Oro uostai :

Dumaguete, Filipinai

platuma: 09-20-01N, ilguma: 123-18-02E, Aukštis: 5 m

Dabartinis oras

Ataskaita buvo paskelbta 15 minutes, ne 21:00 UTC
Vėjas 4 kt iš Vakarų/Pietvakarių
Temperatūra 24°C
Drėgmė 83%
Slėgis 1009 hPa
Matomumas 10 km arba daugiau
Mažai debesys ne aukštis 1500 ft
Su prošvaistėmis ne aukštis 22000 ft

METAR: RPVD 202100Z 25004KT 9999 FEW015 BKN220 24/21 Q1009 RMK A2980

Laikas: 05:15 (21:15 UTC)

Prognozė

Ataskaita buvo paskelbta 4 valandos ir 15 minutes, ne 17:00 UTC
Prognozė galioja nuo 20 metu 18 UTC su 21 metu 18 UTC
Vėjas 6 kt iš Pietvakarių
Matomumas 10 km arba daugiau
Mažai debesys ne aukštis 1500 ft
Su prošvaistėmis ne aukštis 22000 ft
Laikinai
nuo 20 metu 18 UTC su 20 metu 24 UTC
Vėjas kt iš Šiaurės
Mažai debesys ne aukštis 1500 ft
Išsisklaidę debesys ne aukštis 7000 ft
Su prošvaistėmis ne aukštis 22000 ft

TAF: RPVD 201700Z 2018/2118 22006KT 9999 FEW015 BKN220 TEMPO 2018/2024 00000KT FEW015 SCT070 BKN220

Orai ataskaitas ir orų prognozės (METAR, TAF).

turimą stotys yra geltonos ir raudonos taškus žemėlapyje.

Perkelti pele per norėdami pamatyti stoties vardą.

Tada spustelėkite, norėdami matyti oro stebėjimo ir prognozės.

Norėdami pakeisti žemėlapį: spustelėkite ant žalios mygtukų su juodo kryžiaus žemyn,; žalią mygtuką su brūkšneliu, jei norite nutolinti; arba žalių rodyklių gretimoms žemėlapius.


METAR-TAF: